Terminal Aerodrome Forecast
Issued by NWS Omaha/Valley, NE

Home | Current Version | Previous Version | Text Only | Print | Product List | Glossary On
Versions: 1 2 3 4 5 6 7 8 9 10 11 12 13 14 15 16 17 18 19 20 21 22 23 24
000
FTUS43 KOAX 221736
TAFLNK
TAF
KLNK 221736Z 2218/2318 14008KT P6SM SCT040 BKN150
     FM230500 11008KT P6SM -SHRA OVC040
      TEMPO 2306/2310 4SM -TSRA BR OVC030CB
     FM231300 15010KT P6SM BKN040=

USA.gov is the U.S. government's official web portal to all federal, state and local government web resources and services.